Bouse, Arizona
Current Conditions -  °F | °C
As of 6:52 AM on Saturday 22 Nov 2014 (Local Time) from KBLH Reporting Station
Clear Clear  
Wind Chill: 46°   Ceiling: Unl
Heat Index: 46°   Visibility: 10mi
Dew Point: 31°   Wind: 0mph
Humidity: 56%   Direction: NA
Pressure: 30.04"   Gusts: NA
Location:  33.93°N, 114.01°W
Report Text: KBLH 221352Z AUTO 00000KT 10SM CLR 08/M01 A3004 RMK AO2 SLP169 T00781006
Loading
Personal Weather Stations






























Interactive Weather Map New forecast layout! Learn more

10-Day Weather Forecast

Advertisements
Track Severe Weather on mobile